sensor_id;sensor_type;location;lat;lon;timestamp;pressure;altitude;pressure_sealevel;temperature;humidity
71299;BME280;59083;47.974;21.722;2023-02-10T00:01:26;102646.28;;;-4.84;94.58
71299;BME280;59083;47.974;21.722;2023-02-10T00:04:27;102648.84;;;-4.82;94.82
71299;BME280;59083;47.974;21.722;2023-02-10T00:07:29;102652.44;;;-4.88;94.72
71299;BME280;59083;47.974;21.722;2023-02-10T00:10:30;102642.16;;;-4.92;94.97
71299;BME280;59083;47.974;21.722;2023-02-10T00:13:31;102644.84;;;-4.97;95.17
71299;BME280;59083;47.974;21.722;2023-02-10T00:16:34;102640.63;;;-5.03;95.32
71299;BME280;59083;47.974;21.722;2023-02-10T00:19:35;102640.69;;;-5.06;95.42
71299;BME280;59083;47.974;21.722;2023-02-10T00:22:36;102643.37;;;-5.10;95.60
71299;BME280;59083;47.974;21.722;2023-02-10T00:25:38;102633.87;;;-5.11;95.58
71299;BME280;59083;47.974;21.722;2023-02-10T00:28:40;102636.28;;;-5.02;95.67
71299;BME280;59083;47.974;21.722;2023-02-10T00:31:41;102638.81;;;-4.99;95.79
71299;BME280;59083;47.974;21.722;2023-02-10T00:34:46;102631.00;;;-4.97;95.73
71299;BME280;59083;47.974;21.722;2023-02-10T00:37:47;102630.88;;;-4.93;95.70
71299;BME280;59083;47.974;21.722;2023-02-10T00:40:48;102640.50;;;-4.96;95.72
71299;BME280;59083;47.974;21.722;2023-02-10T00:43:50;102629.38;;;-5.03;95.73
71299;BME280;59083;47.974;21.722;2023-02-10T00:46:52;102629.28;;;-5.00;95.78
71299;BME280;59083;47.974;21.722;2023-02-10T00:49:53;102638.78;;;-4.97;95.72
71299;BME280;59083;47.974;21.722;2023-02-10T00:52:55;102641.38;;;-4.96;95.64
71299;BME280;59083;47.974;21.722;2023-02-10T00:55:56;102633.50;;;-4.93;95.54
71299;BME280;59083;47.974;21.722;2023-02-10T00:58:58;102636.09;;;-4.94;95.36
71299;BME280;59083;47.974;21.722;2023-02-10T01:01:59;102636.19;;;-4.97;95.29
71299;BME280;59083;47.974;21.722;2023-02-10T01:05:00;102636.22;;;-4.99;95.49
71299;BME280;59083;47.974;21.722;2023-02-10T01:08:04;102643.25;;;-5.04;95.40
71299;BME280;59083;47.974;21.722;2023-02-10T01:11:08;102635.72;;;-5.16;95.16
71299;BME280;59083;47.974;21.722;2023-02-10T01:14:09;102635.78;;;-5.19;95.09
71299;BME280;59083;47.974;21.722;2023-02-10T01:17:11;102637.66;;;-5.26;95.18
71299;BME280;59083;47.974;21.722;2023-02-10T01:20:12;102639.50;;;-5.32;95.37
71299;BME280;59083;47.974;21.722;2023-02-10T01:23:14;102647.31;;;-5.32;95.72
71299;BME280;59083;47.974;21.722;2023-02-10T01:26:15;102636.06;;;-5.34;95.80
71299;BME280;59083;47.974;21.722;2023-02-10T01:29:17;102645.66;;;-5.36;96.09
71299;BME280;59083;47.974;21.722;2023-02-10T01:32:18;102635.28;;;-5.36;96.15
71299;BME280;59083;47.974;21.722;2023-02-10T01:35:19;102631.72;;;-5.32;96.24
71299;BME280;59083;47.974;21.722;2023-02-10T01:38:21;102628.91;;;-5.23;96.15
71299;BME280;59083;47.974;21.722;2023-02-10T01:41:23;102629.75;;;-5.21;96.06
71299;BME280;59083;47.974;21.722;2023-02-10T01:47:26;102619.31;;;-5.18;96.26
71299;BME280;59083;47.974;21.722;2023-02-10T01:50:31;102625.16;;;-5.09;96.08
71299;BME280;59083;47.974;21.722;2023-02-10T01:53:33;102607.84;;;-5.08;95.97
71299;BME280;59083;47.974;21.722;2023-02-10T01:56:34;102617.53;;;-5.18;95.56
71299;BME280;59083;47.974;21.722;2023-02-10T01:59:36;102618.59;;;-5.25;95.51
71299;BME280;59083;47.974;21.722;2023-02-10T02:02:39;102619.38;;;-5.21;95.71
71299;BME280;59083;47.974;21.722;2023-02-10T02:05:43;102615.16;;;-5.27;95.79
71299;BME280;59083;47.974;21.722;2023-02-10T02:08:46;102616.22;;;-5.37;95.38
71299;BME280;59083;47.974;21.722;2023-02-10T02:21:47;102608.06;;;-5.62;95.71
71299;BME280;59083;47.974;21.722;2023-02-10T02:25:00;102608.91;;;-5.61;95.77
71299;BME280;59083;47.974;21.722;2023-02-10T02:31:50;102608.12;;;-5.65;95.70
71299;BME280;59083;47.974;21.722;2023-02-10T02:34:59;102613.25;;;-5.62;95.82
71299;BME280;59083;47.974;21.722;2023-02-10T02:38:03;102610.69;;;-5.63;95.81
71299;BME280;59083;47.974;21.722;2023-02-10T02:41:04;102600.47;;;-5.72;95.89
71299;BME280;59083;47.974;21.722;2023-02-10T02:44:06;102596.34;;;-5.81;95.93
71299;BME280;59083;47.974;21.722;2023-02-10T02:47:26;102593.03;;;-5.89;96.16
71299;BME280;59083;47.974;21.722;2023-02-10T02:57:13;102587.72;;;-5.83;96.42
71299;BME280;59083;47.974;21.722;2023-02-10T03:00:22;102579.09;;;-5.85;96.65
71299;BME280;59083;47.974;21.722;2023-02-10T03:03:25;102587.62;;;-5.80;96.75
71299;BME280;59083;47.974;21.722;2023-02-10T03:06:26;102577.22;;;-5.77;96.61
71299;BME280;59083;47.974;21.722;2023-02-10T03:09:27;102575.50;;;-5.78;96.88
71299;BME280;59083;47.974;21.722;2023-02-10T03:12:29;102575.31;;;-5.69;96.82
71299;BME280;59083;47.974;21.722;2023-02-10T03:15:30;102575.50;;;-5.78;96.88
71299;BME280;59083;47.974;21.722;2023-02-10T03:18:31;102590.13;;;-5.74;96.85
71299;BME280;59083;47.974;21.722;2023-02-10T03:21:33;102590.13;;;-5.74;96.67
71299;BME280;59083;47.974;21.722;2023-02-10T03:24:34;102588.34;;;-5.70;96.60
71299;BME280;59083;47.974;21.722;2023-02-10T03:27:35;102592.69;;;-5.72;96.71
71299;BME280;59083;47.974;21.722;2023-02-10T03:30:37;102596.19;;;-5.75;96.67
71299;BME280;59083;47.974;21.722;2023-02-10T03:33:39;102602.22;;;-5.73;96.49
71299;BME280;59083;47.974;21.722;2023-02-10T03:36:40;102604.13;;;-5.81;96.81
71299;BME280;59083;47.974;21.722;2023-02-10T03:39:41;102603.31;;;-5.86;97.25
71299;BME280;59083;47.974;21.722;2023-02-10T03:42:42;102604.16;;;-5.84;96.97
71299;BME280;59083;47.974;21.722;2023-02-10T03:45:44;102608.47;;;-5.83;96.92
71299;BME280;59083;47.974;21.722;2023-02-10T03:48:45;102612.97;;;-5.91;97.17
71299;BME280;59083;47.974;21.722;2023-02-10T03:51:47;102614.66;;;-5.87;97.01
71299;BME280;59083;47.974;21.722;2023-02-10T03:54:48;102616.28;;;-5.86;96.95
71299;BME280;59083;47.974;21.722;2023-02-10T03:57:49;102614.78;;;-5.95;97.02
71299;BME280;59083;47.974;21.722;2023-02-10T04:00:50;102604.28;;;-5.89;96.66
71299;BME280;59083;47.974;21.722;2023-02-10T04:03:52;102593.88;;;-5.87;96.62
71299;BME280;59083;47.974;21.722;2023-02-10T04:06:53;102589.69;;;-5.94;96.62
71299;BME280;59083;47.974;21.722;2023-02-10T04:09:54;102572.37;;;-5.95;96.70
71299;BME280;59083;47.974;21.722;2023-02-10T04:12:55;102568.69;;;-5.85;97.04
71299;BME280;59083;47.974;21.722;2023-02-10T04:16:12;102563.38;;;-5.79;96.74
71299;BME280;59083;47.974;21.722;2023-02-10T04:19:13;102549.50;;;-5.76;96.73
71299;BME280;59083;47.974;21.722;2023-02-10T04:22:15;102544.22;;;-5.72;96.39
71299;BME280;59083;47.974;21.722;2023-02-10T04:25:17;102557.97;;;-5.68;96.32
71299;BME280;59083;47.974;21.722;2023-02-10T04:28:19;102558.59;;;-5.56;95.69
71299;BME280;59083;47.974;21.722;2023-02-10T04:31:20;102559.34;;;-5.51;95.42
71299;BME280;59083;47.974;21.722;2023-02-10T04:34:21;102566.19;;;-5.47;95.22
71299;BME280;59083;47.974;21.722;2023-02-10T04:37:22;102573.28;;;-5.53;94.92
71299;BME280;59083;47.974;21.722;2023-02-10T04:40:24;102574.16;;;-5.54;94.82
71299;BME280;59083;47.974;21.722;2023-02-10T04:43:25;102581.84;;;-5.50;94.62
71299;BME280;59083;47.974;21.722;2023-02-10T04:46:27;102587.81;;;-5.46;94.49
71299;BME280;59083;47.974;21.722;2023-02-10T04:49:28;102596.78;;;-5.61;94.41
71299;BME280;59083;47.974;21.722;2023-02-10T04:52:30;102596.94;;;-5.68;94.59
71299;BME280;59083;47.974;21.722;2023-02-10T04:55:31;102603.84;;;-5.69;94.61
71299;BME280;59083;47.974;21.722;2023-02-10T04:58:33;102609.09;;;-5.70;94.67
71299;BME280;59083;47.974;21.722;2023-02-10T05:01:34;102611.75;;;-5.73;94.69
71299;BME280;59083;47.974;21.722;2023-02-10T05:04:35;102623.75;;;-5.68;94.65
71299;BME280;59083;47.974;21.722;2023-02-10T05:07:37;102623.94;;;-5.77;94.60
71299;BME280;59083;47.974;21.722;2023-02-10T05:10:39;102624.94;;;-5.84;94.63
71299;BME280;59083;47.974;21.722;2023-02-10T05:13:41;102629.25;;;-5.83;94.74
71299;BME280;59083;47.974;21.722;2023-02-10T05:16:42;102633.59;;;-5.87;94.85
71299;BME280;59083;47.974;21.722;2023-02-10T05:19:43;102638.91;;;-5.90;94.73
71299;BME280;59083;47.974;21.722;2023-02-10T05:22:45;102648.53;;;-5.96;94.80
71299;BME280;59083;47.974;21.722;2023-02-10T05:25:46;102646.91;;;-6.03;94.94
71299;BME280;59083;47.974;21.722;2023-02-10T05:28:48;102659.16;;;-6.10;95.22
71299;BME280;59083;47.974;21.722;2023-02-10T05:31:49;102664.28;;;-6.08;95.26
71299;BME280;59083;47.974;21.722;2023-02-10T05:34:50;102655.75;;;-6.13;95.29
71299;BME280;59083;47.974;21.722;2023-02-10T05:37:51;102662.72;;;-6.15;95.18
71299;BME280;59083;47.974;21.722;2023-02-10T05:40:53;102667.06;;;-6.17;94.97
71299;BME280;59083;47.974;21.722;2023-02-10T05:43:54;102666.28;;;-6.22;95.18
71299;BME280;59083;47.974;21.722;2023-02-10T05:46:55;102666.28;;;-6.22;95.20
71299;BME280;59083;47.974;21.722;2023-02-10T05:49:56;102664.47;;;-6.17;95.30
71299;BME280;59083;47.974;21.722;2023-02-10T05:52:58;102668.03;;;-6.24;95.15
71299;BME280;59083;47.974;21.722;2023-02-10T05:55:59;102674.94;;;-6.23;95.17
71299;BME280;59083;47.974;21.722;2023-02-10T05:59:00;102673.19;;;-6.21;95.05
71299;BME280;59083;47.974;21.722;2023-02-10T06:02:01;102681.75;;;-6.16;95.01
71299;BME280;59083;47.974;21.722;2023-02-10T06:05:03;102669.66;;;-6.17;94.90
71299;BME280;59083;47.974;21.722;2023-02-10T06:08:04;102650.84;;;-6.32;94.64
71299;BME280;59083;47.974;21.722;2023-02-10T06:11:06;102674.69;;;-6.08;94.70
71299;BME280;59083;47.974;21.722;2023-02-10T06:14:07;102676.47;;;-6.10;94.35
71299;BME280;59083;47.974;21.722;2023-02-10T06:17:08;102677.16;;;-6.01;94.35
71299;BME280;59083;47.974;21.722;2023-02-10T06:20:10;102669.28;;;-5.96;94.21
71299;BME280;59083;47.974;21.722;2023-02-10T06:23:12;102658.66;;;-5.84;94.07
71299;BME280;59083;47.974;21.722;2023-02-10T06:26:13;102656.63;;;-5.67;93.62
71299;BME280;59083;47.974;21.722;2023-02-10T06:29:14;102655.31;;;-5.43;93.43
71299;BME280;59083;47.974;21.722;2023-02-10T06:32:15;102650.53;;;-5.20;93.04
71299;BME280;59083;47.974;21.722;2023-02-10T06:35:16;102664.53;;;-4.85;92.05
71299;BME280;59083;47.974;21.722;2023-02-10T06:38:17;102667.09;;;-4.10;90.50
71299;BME280;59083;47.974;21.722;2023-02-10T06:41:19;102670.97;;;-3.58;88.18
71299;BME280;59083;47.974;21.722;2023-02-10T06:44:20;102669.28;;;-2.98;85.29
71299;BME280;59083;47.974;21.722;2023-02-10T06:47:21;102669.44;;;-2.45;82.27
71299;BME280;59083;47.974;21.722;2023-02-10T06:50:22;102675.06;;;-2.04;80.18
71299;BME280;59083;47.974;21.722;2023-02-10T06:53:24;102672.47;;;-1.78;78.42
71299;BME280;59083;47.974;21.722;2023-02-10T06:56:25;102675.44;;;-1.64;76.92
71299;BME280;59083;47.974;21.722;2023-02-10T06:59:27;102677.00;;;-1.83;77.50
71299;BME280;59083;47.974;21.722;2023-02-10T07:02:28;102678.03;;;-2.15;78.88
71299;BME280;59083;47.974;21.722;2023-02-10T07:05:30;102681.50;;;-2.41;80.21
71299;BME280;59083;47.974;21.722;2023-02-10T07:08:32;102682.16;;;-2.62;80.64
71299;BME280;59083;47.974;21.722;2023-02-10T07:11:33;102686.28;;;-2.84;81.24
71299;BME280;59083;47.974;21.722;2023-02-10T07:14:34;102682.88;;;-2.86;82.72
71299;BME280;59083;47.974;21.722;2023-02-10T07:17:36;102696.62;;;-2.81;82.10
71299;BME280;59083;47.974;21.722;2023-02-10T07:20:37;102683.13;;;-2.96;82.78
71299;BME280;59083;47.974;21.722;2023-02-10T07:23:39;102666.81;;;-3.02;82.63
71299;BME280;59083;47.974;21.722;2023-02-10T07:26:40;102680.97;;;-2.81;81.92
71299;BME280;59083;47.974;21.722;2023-02-10T07:29:41;102675.56;;;-2.74;81.91
71299;BME280;59083;47.974;21.722;2023-02-10T07:32:42;102675.97;;;-2.60;81.67
71299;BME280;59083;47.974;21.722;2023-02-10T07:35:45;102668.09;;;-2.58;80.89
71299;BME280;59083;47.974;21.722;2023-02-10T07:38:46;102652.53;;;-2.61;80.75
71299;BME280;59083;47.974;21.722;2023-02-10T07:41:48;102640.47;;;-2.65;80.33
71299;BME280;59083;47.974;21.722;2023-02-10T07:44:49;102661.47;;;-2.68;80.67
71299;BME280;59083;47.974;21.722;2023-02-10T07:47:51;102659.06;;;-2.76;81.20
71299;BME280;59083;47.974;21.722;2023-02-10T07:50:52;102662.44;;;-2.72;81.07
71299;BME280;59083;47.974;21.722;2023-02-10T07:53:54;102644.81;;;-2.64;81.39
71299;BME280;59083;47.974;21.722;2023-02-10T07:56:56;102646.38;;;-2.59;81.69
71299;BME280;59083;47.974;21.722;2023-02-10T07:59:57;102651.56;;;-2.57;81.95
71299;BME280;59083;47.974;21.722;2023-02-10T08:02:58;102662.59;;;-2.49;81.74
71299;BME280;59083;47.974;21.722;2023-02-10T08:06:00;102657.19;;;-2.43;81.41
71299;BME280;59083;47.974;21.722;2023-02-10T08:09:01;102657.00;;;-2.37;81.20
71299;BME280;59083;47.974;21.722;2023-02-10T08:12:03;102655.78;;;-2.27;80.79
71299;BME280;59083;47.974;21.722;2023-02-10T08:15:05;102653.09;;;-2.24;80.74
71299;BME280;59083;47.974;21.722;2023-02-10T08:18:07;102666.94;;;-2.22;80.45
71299;BME280;59083;47.974;21.722;2023-02-10T08:21:08;102636.59;;;-2.26;80.74
71299;BME280;59083;47.974;21.722;2023-02-10T08:24:10;102656.00;;;-2.06;80.72
71299;BME280;59083;47.974;21.722;2023-02-10T08:27:11;102659.19;;;-1.98;80.35
71299;BME280;59083;47.974;21.722;2023-02-10T08:30:12;102651.28;;;-1.95;79.98
71299;BME280;59083;47.974;21.722;2023-02-10T08:33:13;102661.25;;;-1.82;79.88
71299;BME280;59083;47.974;21.722;2023-02-10T08:36:17;102655.88;;;-1.77;80.01
71299;BME280;59083;47.974;21.722;2023-02-10T08:39:19;102652.94;;;-1.68;79.95
71299;BME280;59083;47.974;21.722;2023-02-10T08:42:20;102661.38;;;-1.60;79.90
71299;BME280;59083;47.974;21.722;2023-02-10T08:45:21;102664.41;;;-1.47;79.64
71299;BME280;59083;47.974;21.722;2023-02-10T08:48:23;102657.16;;;-1.39;79.44
71299;BME280;59083;47.974;21.722;2023-02-10T08:51:24;102658.69;;;-1.34;79.20
71299;BME280;59083;47.974;21.722;2023-02-10T08:54:25;102655.06;;;-1.30;78.68
71299;BME280;59083;47.974;21.722;2023-02-10T08:57:27;102658.09;;;-1.17;78.41
71299;BME280;59083;47.974;21.722;2023-02-10T09:00:28;102660.97;;;-1.01;77.32
71299;BME280;59083;47.974;21.722;2023-02-10T09:03:29;102665.31;;;-1.00;77.04
71299;BME280;59083;47.974;21.722;2023-02-10T09:06:34;102661.59;;;-0.95;77.15
71299;BME280;59083;47.974;21.722;2023-02-10T09:09:41;102671.38;;;-0.76;76.65
71299;BME280;59083;47.974;21.722;2023-02-10T09:12:43;102665.06;;;-0.71;75.95
71299;BME280;59083;47.974;21.722;2023-02-10T09:15:44;102677.00;;;-0.64;76.18
71299;BME280;59083;47.974;21.722;2023-02-10T09:18:45;102677.22;;;-0.47;75.66
71299;BME280;59083;47.974;21.722;2023-02-10T09:21:46;102681.16;;;-0.36;75.28
71299;BME280;59083;47.974;21.722;2023-02-10T09:24:49;102688.22;;;-0.17;75.22
71299;BME280;59083;47.974;21.722;2023-02-10T09:27:52;102687.19;;;-0.13;74.83
71299;BME280;59083;47.974;21.722;2023-02-10T09:30:55;102692.88;;;-0.02;73.90
71299;BME280;59083;47.974;21.722;2023-02-10T09:33:56;102696.34;;;0.19;73.67
71299;BME280;59083;47.974;21.722;2023-02-10T09:36:58;102688.28;;;0.24;72.42
71299;BME280;59083;47.974;21.722;2023-02-10T09:40:01;102698.06;;;0.40;71.79
71299;BME280;59083;47.974;21.722;2023-02-10T09:50:25;102691.94;;;0.62;70.38
71299;BME280;59083;47.974;21.722;2023-02-10T09:53:30;102690.06;;;0.84;69.77
71299;BME280;59083;47.974;21.722;2023-02-10T09:56:31;102680.44;;;1.22;68.06
71299;BME280;59083;47.974;21.722;2023-02-10T09:59:34;102675.19;;;1.41;67.62
71299;BME280;59083;47.974;21.722;2023-02-10T10:02:46;102670.00;;;1.58;67.12
71299;BME280;59083;47.974;21.722;2023-02-10T10:12:15;102666.87;;;1.86;65.94
71299;BME280;59083;47.974;21.722;2023-02-10T10:15:18;102667.44;;;1.92;64.01
71299;BME280;59083;47.974;21.722;2023-02-10T10:18:36;102658.75;;;1.73;63.83
71299;BME280;59083;47.974;21.722;2023-02-10T10:22:01;102633.63;;;1.49;62.88
71299;BME280;59083;47.974;21.722;2023-02-10T10:31:41;102660.53;;;1.54;65.31
71299;BME280;59083;47.974;21.722;2023-02-10T10:34:50;102651.72;;;1.74;65.38
71299;BME280;59083;47.974;21.722;2023-02-10T10:37:52;102657.16;;;1.88;64.65
71299;BME280;59083;47.974;21.722;2023-02-10T10:41:00;102661.59;;;2.04;63.79
71299;BME280;59083;47.974;21.722;2023-02-10T10:44:04;102645.16;;;1.99;61.13
71299;BME280;59083;47.974;21.722;2023-02-10T10:47:12;102650.13;;;2.05;62.80
71299;BME280;59083;47.974;21.722;2023-02-10T10:50:20;102644.78;;;2.07;62.09
71299;BME280;59083;47.974;21.722;2023-02-10T10:53:42;102640.25;;;2.11;59.99
71299;BME280;59083;47.974;21.722;2023-02-10T10:57:00;102634.19;;;2.08;60.32
71299;BME280;59083;47.974;21.722;2023-02-10T11:00:24;102629.78;;;2.26;60.24
71299;BME280;59083;47.974;21.722;2023-02-10T11:03:26;102627.41;;;2.22;60.77
71299;BME280;59083;47.974;21.722;2023-02-10T11:06:33;102623.41;;;2.47;58.76
71299;BME280;59083;47.974;21.722;2023-02-10T11:09:39;102620.78;;;2.80;56.68
71299;BME280;59083;47.974;21.722;2023-02-10T11:12:45;102617.94;;;3.01;57.26
71299;BME280;59083;47.974;21.722;2023-02-10T11:15:47;102610.44;;;3.09;56.74
71299;BME280;59083;47.974;21.722;2023-02-10T11:21:54;102602.87;;;2.54;58.65
71299;BME280;59083;47.974;21.722;2023-02-10T11:24:58;102611.56;;;2.56;59.94
71299;BME280;59083;47.974;21.722;2023-02-10T11:28:01;102604.00;;;2.50;59.95
71299;BME280;59083;47.974;21.722;2023-02-10T11:31:06;102614.16;;;2.73;60.55
71299;BME280;59083;47.974;21.722;2023-02-10T11:34:26;102604.13;;;2.80;60.73
71299;BME280;59083;47.974;21.722;2023-02-10T11:37:33;102603.97;;;2.83;61.51
71299;BME280;59083;47.974;21.722;2023-02-10T11:40:51;102603.25;;;2.79;62.44
71299;BME280;59083;47.974;21.722;2023-02-10T11:43:53;102584.72;;;2.49;63.14
71299;BME280;59083;47.974;21.722;2023-02-10T11:47:15;102584.66;;;2.34;63.48
71299;BME280;59083;47.974;21.722;2023-02-10T11:50:26;102578.03;;;2.27;64.65
71299;BME280;59083;47.974;21.722;2023-02-10T11:53:31;102586.06;;;2.24;65.25
71299;BME280;59083;47.974;21.722;2023-02-10T11:56:49;102575.13;;;2.16;64.77
71299;BME280;59083;47.974;21.722;2023-02-10T12:07:34;102574.94;;;2.01;65.32
71299;BME280;59083;47.974;21.722;2023-02-10T12:10:47;102560.31;;;2.13;64.77
71299;BME280;59083;47.974;21.722;2023-02-10T12:21:34;102555.75;;;2.17;62.23
71299;BME280;59083;47.974;21.722;2023-02-10T12:28:14;102561.50;;;2.07;61.10
71299;BME280;59083;47.974;21.722;2023-02-10T12:31:39;102553.38;;;2.12;61.21
71299;BME280;59083;47.974;21.722;2023-02-10T12:35:04;102536.28;;;2.21;61.01
71299;BME280;59083;47.974;21.722;2023-02-10T12:38:26;102540.34;;;2.26;60.77
71299;BME280;59083;47.974;21.722;2023-02-10T12:44:49;102535.78;;;2.30;59.91
71299;BME280;59083;47.974;21.722;2023-02-10T12:54:22;102545.63;;;2.26;59.38
71299;BME280;59083;47.974;21.722;2023-02-10T12:57:46;102549.72;;;2.32;59.70
71299;BME280;59083;47.974;21.722;2023-02-10T13:00:53;102543.22;;;2.22;59.86
71299;BME280;59083;47.974;21.722;2023-02-10T13:04:16;102538.72;;;2.24;60.93
71299;BME280;59083;47.974;21.722;2023-02-10T13:10:36;102544.59;;;2.29;60.71
71299;BME280;59083;47.974;21.722;2023-02-10T13:13:39;102537.66;;;2.28;61.02
71299;BME280;59083;47.974;21.722;2023-02-10T13:16:51;102541.34;;;2.24;60.54
71299;BME280;59083;47.974;21.722;2023-02-10T13:20:07;102538.72;;;2.24;60.74
71299;BME280;59083;47.974;21.722;2023-02-10T13:23:24;102536.59;;;2.15;60.42
71299;BME280;59083;47.974;21.722;2023-02-10T13:30:23;102538.94;;;2.03;60.94
71299;BME280;59083;47.974;21.722;2023-02-10T13:37:26;102548.72;;;2.00;61.04
71299;BME280;59083;47.974;21.722;2023-02-10T13:40:44;102544.00;;;2.06;61.18
71299;BME280;59083;47.974;21.722;2023-02-10T13:43:46;102544.50;;;1.97;61.29
71299;BME280;59083;47.974;21.722;2023-02-10T13:56:35;102545.88;;;2.04;60.96
71299;BME280;59083;47.974;21.722;2023-02-10T13:59:39;102544.87;;;1.90;60.95
71299;BME280;59083;47.974;21.722;2023-02-10T14:02:41;102553.00;;;2.02;61.24
71299;BME280;59083;47.974;21.722;2023-02-10T14:05:56;102543.47;;;2.00;60.97
71299;BME280;59083;47.974;21.722;2023-02-10T14:09:17;102556.53;;;2.01;61.03
71299;BME280;59083;47.974;21.722;2023-02-10T14:12:25;102555.56;;;2.04;60.60
71299;BME280;59083;47.974;21.722;2023-02-10T14:15:30;102545.09;;;2.02;60.34
71299;BME280;59083;47.974;21.722;2023-02-10T14:18:37;102538.59;;;2.10;60.59
71299;BME280;59083;47.974;21.722;2023-02-10T14:21:40;102546.03;;;2.01;60.59
71299;BME280;59083;47.974;21.722;2023-02-10T14:24:43;102549.91;;;1.94;60.97
71299;BME280;59083;47.974;21.722;2023-02-10T14:27:53;102549.91;;;1.94;60.93
71299;BME280;59083;47.974;21.722;2023-02-10T14:31:00;102548.66;;;1.84;60.21
71299;BME280;59083;47.974;21.722;2023-02-10T14:37:48;102545.28;;;1.82;60.17
71299;BME280;59083;47.974;21.722;2023-02-10T14:40:50;102538.63;;;1.75;60.56
71299;BME280;59083;47.974;21.722;2023-02-10T14:43:52;102540.47;;;1.73;60.77
71299;BME280;59083;47.974;21.722;2023-02-10T14:46:54;102538.94;;;1.69;60.75
71299;BME280;59083;47.974;21.722;2023-02-10T14:49:56;102561.81;;;1.67;60.77
71299;BME280;59083;47.974;21.722;2023-02-10T14:52:59;102553.31;;;1.62;61.30
71299;BME280;59083;47.974;21.722;2023-02-10T14:56:01;102554.41;;;1.58;61.21
71299;BME280;59083;47.974;21.722;2023-02-10T14:59:02;102539.84;;;1.51;61.49
71299;BME280;59083;47.974;21.722;2023-02-10T15:02:39;102541.69;;;1.49;61.79
71299;BME280;59083;47.974;21.722;2023-02-10T15:05:48;102536.44;;;1.49;61.62
71299;BME280;59083;47.974;21.722;2023-02-10T15:08:55;102537.28;;;1.49;62.00
71299;BME280;59083;47.974;21.722;2023-02-10T15:12:05;102528.50;;;1.50;61.95
71299;BME280;59083;47.974;21.722;2023-02-10T15:15:32;102532.50;;;1.40;61.74
71299;BME280;59083;47.974;21.722;2023-02-10T15:18:39;102518.75;;;1.35;61.64
71299;BME280;59083;47.974;21.722;2023-02-10T15:21:43;102515.56;;;1.29;62.64
71299;BME280;59083;47.974;21.722;2023-02-10T15:24:44;102518.19;;;1.29;61.99
71299;BME280;59083;47.974;21.722;2023-02-10T15:27:45;102525.47;;;1.23;62.09
71299;BME280;59083;47.974;21.722;2023-02-10T15:33:59;102527.59;;;1.15;62.29
71299;BME280;59083;47.974;21.722;2023-02-10T15:37:03;102542.66;;;1.12;62.42
71299;BME280;59083;47.974;21.722;2023-02-10T15:40:23;102527.41;;;1.01;63.13
71299;BME280;59083;47.974;21.722;2023-02-10T15:43:30;102537.56;;;0.90;63.50
71299;BME280;59083;47.974;21.722;2023-02-10T15:46:32;102538.56;;;0.88;63.82
71299;BME280;59083;47.974;21.722;2023-02-10T15:49:33;102543.22;;;0.81;63.85
71299;BME280;59083;47.974;21.722;2023-02-10T15:52:39;102545.37;;;0.73;64.31
71299;BME280;59083;47.974;21.722;2023-02-10T15:55:41;102533.31;;;0.69;64.79
71299;BME280;59083;47.974;21.722;2023-02-10T15:58:42;102534.44;;;0.63;64.98
71299;BME280;59083;47.974;21.722;2023-02-10T16:01:43;102555.63;;;0.59;65.35
71299;BME280;59083;47.974;21.722;2023-02-10T16:04:45;102560.25;;;0.54;65.60
71299;BME280;59083;47.974;21.722;2023-02-10T16:07:47;102553.28;;;0.53;65.82
71299;BME280;59083;47.974;21.722;2023-02-10T16:10:49;102564.69;;;0.52;65.90
71299;BME280;59083;47.974;21.722;2023-02-10T16:13:50;102563.28;;;0.45;66.37
71299;BME280;59083;47.974;21.722;2023-02-10T16:16:55;102568.00;;;0.36;66.73
71299;BME280;59083;47.974;21.722;2023-02-10T16:19:57;102584.88;;;0.31;67.01
71299;BME280;59083;47.974;21.722;2023-02-10T16:22:58;102580.75;;;0.25;67.10
71299;BME280;59083;47.974;21.722;2023-02-10T16:26:00;102584.38;;;0.23;67.45
71299;BME280;59083;47.974;21.722;2023-02-10T16:29:02;102586.13;;;0.22;67.65
71299;BME280;59083;47.974;21.722;2023-02-10T16:32:04;102582.97;;;0.14;67.89
71299;BME280;59083;47.974;21.722;2023-02-10T16:35:06;102580.62;;;0.08;68.26
71299;BME280;59083;47.974;21.722;2023-02-10T16:38:08;102585.47;;;-0.03;68.84
71299;BME280;59083;47.974;21.722;2023-02-10T16:41:10;102589.16;;;-0.07;69.21
71299;BME280;59083;47.974;21.722;2023-02-10T16:44:11;102587.69;;;-0.14;69.31
71299;BME280;59083;47.974;21.722;2023-02-10T16:47:16;102596.41;;;-0.14;69.40
71299;BME280;59083;47.974;21.722;2023-02-10T16:50:24;102587.25;;;-0.24;69.84
71299;BME280;59083;47.974;21.722;2023-02-10T16:53:27;102589.31;;;-0.32;70.09
71299;BME280;59083;47.974;21.722;2023-02-10T16:56:28;102597.22;;;-0.33;70.45
71299;BME280;59083;47.974;21.722;2023-02-10T16:59:29;102602.59;;;-0.36;70.53
71299;BME280;59083;47.974;21.722;2023-02-10T17:02:32;102597.72;;;-0.46;71.28
71299;BME280;59083;47.974;21.722;2023-02-10T17:05:33;102596.28;;;-0.53;72.58
71299;BME280;59083;47.974;21.722;2023-02-10T17:08:37;102603.34;;;-0.55;72.53
71299;BME280;59083;47.974;21.722;2023-02-10T17:11:38;102593.00;;;-0.58;72.93
71299;BME280;59083;47.974;21.722;2023-02-10T17:14:39;102591.28;;;-0.59;73.37
71299;BME280;59083;47.974;21.722;2023-02-10T17:17:41;102591.28;;;-0.59;73.43
71299;BME280;59083;47.974;21.722;2023-02-10T17:20:42;102589.63;;;-0.61;73.73
71299;BME280;59083;47.974;21.722;2023-02-10T17:23:44;102587.75;;;-0.58;74.12
71299;BME280;59083;47.974;21.722;2023-02-10T17:26:45;102585.81;;;-0.53;74.80
71299;BME280;59083;47.974;21.722;2023-02-10T17:29:48;102571.63;;;-0.47;74.90
71299;BME280;59083;47.974;21.722;2023-02-10T17:32:49;102570.62;;;-0.45;75.47
71299;BME280;59083;47.974;21.722;2023-02-10T17:35:50;102583.09;;;-0.51;75.15